createdAt,value
2018-07-09T20:58:01.381Z,209.20
2018-07-09T21:00:34.102Z,145.23
2018-07-09T21:03:08.306Z,186.87
2018-07-09T21:05:53.784Z,150.63
2018-07-09T21:08:28.058Z,131.07
2018-07-09T21:11:01.158Z,59.50
2018-07-09T21:13:38.057Z,53.23
2018-07-09T21:16:12.936Z,58.20
2018-07-09T21:18:46.616Z,109.07
2018-07-09T21:21:20.342Z,79.43
2018-07-09T21:23:52.858Z,55.23
2018-07-09T21:26:31.200Z,186.30
2018-07-09T21:29:03.897Z,114.30
2018-07-09T21:31:39.278Z,237.20
2018-07-09T21:34:13.065Z,203.03
2018-07-09T21:36:47.359Z,176.53
2018-07-09T21:39:20.598Z,102.17
2018-07-09T21:41:53.179Z,80.27
2018-07-09T21:44:26.115Z,267.57
2018-07-09T21:47:00.122Z,218.87
2018-07-09T21:49:33.440Z,200.10
2018-07-09T21:52:07.479Z,273.87
2018-07-09T21:54:43.309Z,279.60
2018-07-09T21:57:15.464Z,242.60
2018-07-09T21:59:49.698Z,235.53
2018-07-09T22:02:22.603Z,210.07
2018-07-09T22:04:55.376Z,181.73
2018-07-09T22:07:29.375Z,90.80
2018-07-09T22:10:02.583Z,72.93
2018-07-09T22:34:52.847Z,1120.60
2018-07-09T22:37:37.707Z,973.90
2018-07-09T22:40:16.718Z,596.07
2018-07-09T22:42:59.825Z,287.67
2018-07-09T22:45:38.939Z,97.90
2018-07-09T22:48:21.002Z,109.70
2018-07-09T22:51:02.196Z,202.20
2018-07-09T22:53:52.562Z,317.40
2018-07-09T22:56:32.921Z,321.97
2018-07-09T22:59:11.081Z,441.63
2018-07-09T23:01:51.078Z,430.77
2018-07-09T23:04:32.740Z,398.67
2018-07-09T23:07:15.381Z,281.40
2018-07-09T23:11:26.179Z,248.43
2018-07-09T23:16:56.158Z,85.77
2018-07-09T23:20:53.379Z,77.83
2018-07-09T23:23:26.681Z,479.17
2018-07-09T23:26:05.939Z,751.50
2018-07-09T23:28:40.699Z,964.73
2018-07-09T23:31:13.480Z,994.00
